sensor_id;sensor_type;location;lat;lon;timestamp;P1;durP1;ratioP1;P2;durP2;ratioP2
25481;SDS011;13395;50.752;4.268;2023-04-03T00:00:12;28.27;;;15.32;;
25481;SDS011;13395;50.752;4.268;2023-04-03T00:02:38;35.80;;;16.73;;
25481;SDS011;13395;50.752;4.268;2023-04-03T00:05:05;24.00;;;15.23;;
25481;SDS011;13395;50.752;4.268;2023-04-03T00:07:31;26.83;;;15.00;;
25481;SDS011;13395;50.752;4.268;2023-04-03T00:09:57;23.08;;;14.30;;
25481;SDS011;13395;50.752;4.268;2023-04-03T00:12:22;25.42;;;14.38;;
25481;SDS011;13395;50.752;4.268;2023-04-03T00:14:48;25.00;;;14.98;;
25481;SDS011;13395;50.752;4.268;2023-04-03T00:17:13;26.20;;;14.50;;
25481;SDS011;13395;50.752;4.268;2023-04-03T00:19:39;26.02;;;14.68;;
25481;SDS011;13395;50.752;4.268;2023-04-03T00:22:05;22.65;;;14.18;;
25481;SDS011;13395;50.752;4.268;2023-04-03T00:24:30;21.60;;;13.70;;
25481;SDS011;13395;50.752;4.268;2023-04-03T00:26:56;22.98;;;13.18;;
25481;SDS011;13395;50.752;4.268;2023-04-03T00:29:22;24.80;;;14.45;;
25481;SDS011;13395;50.752;4.268;2023-04-03T00:31:47;29.38;;;14.52;;
25481;SDS011;13395;50.752;4.268;2023-04-03T00:34:13;23.67;;;14.60;;
25481;SDS011;13395;50.752;4.268;2023-04-03T00:36:38;24.05;;;14.30;;
25481;SDS011;13395;50.752;4.268;2023-04-03T00:39:04;27.88;;;13.65;;
25481;SDS011;13395;50.752;4.268;2023-04-03T00:41:30;23.85;;;14.90;;
25481;SDS011;13395;50.752;4.268;2023-04-03T00:43:57;28.58;;;14.60;;
25481;SDS011;13395;50.752;4.268;2023-04-03T00:46:23;21.58;;;14.13;;
25481;SDS011;13395;50.752;4.268;2023-04-03T00:48:48;22.13;;;13.15;;
25481;SDS011;13395;50.752;4.268;2023-04-03T00:51:16;23.63;;;13.57;;
25481;SDS011;13395;50.752;4.268;2023-04-03T00:53:47;23.77;;;13.05;;
25481;SDS011;13395;50.752;4.268;2023-04-03T00:56:18;21.25;;;13.00;;
25481;SDS011;13395;50.752;4.268;2023-04-03T00:58:49;27.35;;;12.73;;
25481;SDS011;13395;50.752;4.268;2023-04-03T01:01:24;24.37;;;13.07;;
25481;SDS011;13395;50.752;4.268;2023-04-03T01:03:51;20.38;;;13.45;;
25481;SDS011;13395;50.752;4.268;2023-04-03T01:06:18;20.70;;;13.30;;
25481;SDS011;13395;50.752;4.268;2023-04-03T01:08:48;24.45;;;13.80;;
25481;SDS011;13395;50.752;4.268;2023-04-03T01:11:15;21.45;;;13.40;;
25481;SDS011;13395;50.752;4.268;2023-04-03T01:13:41;24.33;;;14.15;;
25481;SDS011;13395;50.752;4.268;2023-04-03T01:16:07;21.55;;;13.70;;
25481;SDS011;13395;50.752;4.268;2023-04-03T01:18:34;24.38;;;14.80;;
25481;SDS011;13395;50.752;4.268;2023-04-03T01:26:29;26.70;;;13.88;;
25481;SDS011;13395;50.752;4.268;2023-04-03T01:28:55;25.23;;;13.82;;
25481;SDS011;13395;50.752;4.268;2023-04-03T01:34:08;28.92;;;15.07;;
25481;SDS011;13395;50.752;4.268;2023-04-03T01:36:33;25.35;;;13.40;;
25481;SDS011;13395;50.752;4.268;2023-04-03T01:38:59;27.67;;;13.75;;
25481;SDS011;13395;50.752;4.268;2023-04-03T01:41:25;21.05;;;13.48;;
25481;SDS011;13395;50.752;4.268;2023-04-03T01:43:52;21.30;;;12.63;;
25481;SDS011;13395;50.752;4.268;2023-04-03T01:46:18;23.55;;;14.43;;
25481;SDS011;13395;50.752;4.268;2023-04-03T01:48:44;19.55;;;12.05;;
25481;SDS011;13395;50.752;4.268;2023-04-03T01:51:10;25.77;;;15.00;;
25481;SDS011;13395;50.752;4.268;2023-04-03T01:53:36;25.05;;;13.55;;
25481;SDS011;13395;50.752;4.268;2023-04-03T01:56:02;23.33;;;14.10;;
25481;SDS011;13395;50.752;4.268;2023-04-03T01:58:28;25.15;;;12.70;;
25481;SDS011;13395;50.752;4.268;2023-04-03T02:00:54;20.50;;;12.98;;
25481;SDS011;13395;50.752;4.268;2023-04-03T02:03:20;22.65;;;12.68;;
25481;SDS011;13395;50.752;4.268;2023-04-03T02:05:46;22.35;;;13.55;;
25481;SDS011;13395;50.752;4.268;2023-04-03T02:08:12;19.88;;;12.50;;
25481;SDS011;13395;50.752;4.268;2023-04-03T02:10:38;25.98;;;12.80;;
25481;SDS011;13395;50.752;4.268;2023-04-03T02:13:04;21.70;;;13.43;;
25481;SDS011;13395;50.752;4.268;2023-04-03T02:15:30;26.95;;;13.48;;
25481;SDS011;13395;50.752;4.268;2023-04-03T02:17:56;19.73;;;12.43;;
25481;SDS011;13395;50.752;4.268;2023-04-03T02:20:22;21.52;;;13.00;;
25481;SDS011;13395;50.752;4.268;2023-04-03T02:22:47;26.25;;;13.00;;
25481;SDS011;13395;50.752;4.268;2023-04-03T02:25:13;18.88;;;12.15;;
25481;SDS011;13395;50.752;4.268;2023-04-03T02:27:39;27.13;;;12.52;;
25481;SDS011;13395;50.752;4.268;2023-04-03T02:30:05;20.40;;;12.80;;
25481;SDS011;13395;50.752;4.268;2023-04-03T02:32:31;19.58;;;12.38;;
25481;SDS011;13395;50.752;4.268;2023-04-03T02:34:57;20.02;;;12.85;;
25481;SDS011;13395;50.752;4.268;2023-04-03T02:37:22;22.83;;;11.93;;
25481;SDS011;13395;50.752;4.268;2023-04-03T02:39:48;21.20;;;12.98;;
25481;SDS011;13395;50.752;4.268;2023-04-03T02:42:14;21.50;;;13.73;;
25481;SDS011;13395;50.752;4.268;2023-04-03T02:44:40;24.67;;;13.85;;
25481;SDS011;13395;50.752;4.268;2023-04-03T02:47:05;22.20;;;13.00;;
25481;SDS011;13395;50.752;4.268;2023-04-03T02:49:31;23.08;;;13.10;;
25481;SDS011;13395;50.752;4.268;2023-04-03T02:51:57;24.95;;;12.65;;
25481;SDS011;13395;50.752;4.268;2023-04-03T02:54:22;19.80;;;12.57;;
25481;SDS011;13395;50.752;4.268;2023-04-03T02:56:49;20.42;;;12.82;;
25481;SDS011;13395;50.752;4.268;2023-04-03T02:59:15;22.33;;;13.32;;
25481;SDS011;13395;50.752;4.268;2023-04-03T03:01:40;22.67;;;12.38;;
25481;SDS011;13395;50.752;4.268;2023-04-03T03:04:06;26.92;;;12.77;;
25481;SDS011;13395;50.752;4.268;2023-04-03T03:06:31;18.75;;;12.00;;
25481;SDS011;13395;50.752;4.268;2023-04-03T03:08:57;24.85;;;12.13;;
25481;SDS011;13395;50.752;4.268;2023-04-03T03:11:23;21.27;;;12.15;;
25481;SDS011;13395;50.752;4.268;2023-04-03T03:13:50;20.45;;;11.88;;
25481;SDS011;13395;50.752;4.268;2023-04-03T03:16:15;18.25;;;12.73;;
25481;SDS011;13395;50.752;4.268;2023-04-03T03:18:41;21.35;;;13.15;;
25481;SDS011;13395;50.752;4.268;2023-04-03T03:21:07;20.42;;;12.55;;
25481;SDS011;13395;50.752;4.268;2023-04-03T03:23:34;20.05;;;12.90;;
25481;SDS011;13395;50.752;4.268;2023-04-03T03:26:01;21.80;;;13.07;;
25481;SDS011;13395;50.752;4.268;2023-04-03T03:28:28;25.70;;;13.25;;
25481;SDS011;13395;50.752;4.268;2023-04-03T03:30:54;20.20;;;12.52;;
25481;SDS011;13395;50.752;4.268;2023-04-03T03:33:21;19.10;;;11.98;;
25481;SDS011;13395;50.752;4.268;2023-04-03T03:35:47;21.27;;;12.82;;
25481;SDS011;13395;50.752;4.268;2023-04-03T03:38:12;20.55;;;13.00;;
25481;SDS011;13395;50.752;4.268;2023-04-03T03:40:38;28.05;;;13.13;;
25481;SDS011;13395;50.752;4.268;2023-04-03T03:43:04;21.00;;;13.23;;
25481;SDS011;13395;50.752;4.268;2023-04-03T03:45:30;25.92;;;12.40;;
25481;SDS011;13395;50.752;4.268;2023-04-03T03:47:56;22.63;;;12.93;;
25481;SDS011;13395;50.752;4.268;2023-04-03T03:50:21;21.13;;;13.55;;
25481;SDS011;13395;50.752;4.268;2023-04-03T03:52:47;23.90;;;12.98;;
25481;SDS011;13395;50.752;4.268;2023-04-03T03:55:13;17.80;;;11.95;;
25481;SDS011;13395;50.752;4.268;2023-04-03T03:57:38;25.55;;;13.13;;
25481;SDS011;13395;50.752;4.268;2023-04-03T04:00:04;23.35;;;13.10;;
25481;SDS011;13395;50.752;4.268;2023-04-03T04:02:32;22.95;;;12.60;;
25481;SDS011;13395;50.752;4.268;2023-04-03T04:04:58;17.98;;;12.48;;
25481;SDS011;13395;50.752;4.268;2023-04-03T04:07:23;17.77;;;12.35;;
25481;SDS011;13395;50.752;4.268;2023-04-03T04:09:49;25.13;;;12.93;;
25481;SDS011;13395;50.752;4.268;2023-04-03T04:12:15;23.48;;;12.38;;
25481;SDS011;13395;50.752;4.268;2023-04-03T04:14:40;19.02;;;12.50;;
25481;SDS011;13395;50.752;4.268;2023-04-03T04:17:06;27.92;;;13.32;;
25481;SDS011;13395;50.752;4.268;2023-04-03T04:19:32;25.90;;;12.68;;
25481;SDS011;13395;50.752;4.268;2023-04-03T04:21:58;23.65;;;12.65;;
25481;SDS011;13395;50.752;4.268;2023-04-03T04:24:24;22.10;;;13.05;;
25481;SDS011;13395;50.752;4.268;2023-04-03T04:26:49;23.40;;;12.55;;
25481;SDS011;13395;50.752;4.268;2023-04-03T04:29:15;19.42;;;12.77;;
25481;SDS011;13395;50.752;4.268;2023-04-03T04:31:41;21.88;;;12.27;;
25481;SDS011;13395;50.752;4.268;2023-04-03T04:34:06;24.10;;;12.60;;
25481;SDS011;13395;50.752;4.268;2023-04-03T04:36:32;18.90;;;12.57;;
25481;SDS011;13395;50.752;4.268;2023-04-03T04:38:58;25.83;;;14.05;;
25481;SDS011;13395;50.752;4.268;2023-04-03T04:41:23;20.95;;;12.27;;
25481;SDS011;13395;50.752;4.268;2023-04-03T04:43:49;24.80;;;12.38;;
25481;SDS011;13395;50.752;4.268;2023-04-03T04:46:15;20.80;;;12.25;;
25481;SDS011;13395;50.752;4.268;2023-04-03T04:48:41;20.75;;;12.45;;
25481;SDS011;13395;50.752;4.268;2023-04-03T04:51:07;22.20;;;12.43;;
25481;SDS011;13395;50.752;4.268;2023-04-03T04:53:33;30.83;;;14.18;;
25481;SDS011;13395;50.752;4.268;2023-04-03T04:55:58;24.45;;;13.15;;
25481;SDS011;13395;50.752;4.268;2023-04-03T04:58:24;21.95;;;12.85;;
25481;SDS011;13395;50.752;4.268;2023-04-03T05:00:57;21.73;;;12.27;;
25481;SDS011;13395;50.752;4.268;2023-04-03T05:03:24;25.38;;;13.50;;
25481;SDS011;13395;50.752;4.268;2023-04-03T05:05:50;22.30;;;13.40;;
25481;SDS011;13395;50.752;4.268;2023-04-03T05:08:15;22.05;;;12.85;;
25481;SDS011;13395;50.752;4.268;2023-04-03T05:10:41;26.10;;;13.52;;
25481;SDS011;13395;50.752;4.268;2023-04-03T05:13:07;21.27;;;12.57;;
25481;SDS011;13395;50.752;4.268;2023-04-03T05:15:32;22.33;;;12.00;;
25481;SDS011;13395;50.752;4.268;2023-04-03T05:17:58;20.70;;;13.18;;
25481;SDS011;13395;50.752;4.268;2023-04-03T05:20:24;20.45;;;13.40;;
25481;SDS011;13395;50.752;4.268;2023-04-03T05:22:50;25.73;;;13.05;;
25481;SDS011;13395;50.752;4.268;2023-04-03T05:25:15;22.95;;;13.48;;
25481;SDS011;13395;50.752;4.268;2023-04-03T05:27:41;24.67;;;14.05;;
25481;SDS011;13395;50.752;4.268;2023-04-03T05:30:07;28.38;;;14.50;;
25481;SDS011;13395;50.752;4.268;2023-04-03T05:32:33;20.75;;;13.20;;
25481;SDS011;13395;50.752;4.268;2023-04-03T05:34:59;21.77;;;12.63;;
25481;SDS011;13395;50.752;4.268;2023-04-03T05:37:24;23.73;;;13.68;;
25481;SDS011;13395;50.752;4.268;2023-04-03T05:39:50;26.65;;;13.23;;
25481;SDS011;13395;50.752;4.268;2023-04-03T05:42:16;28.23;;;14.60;;
25481;SDS011;13395;50.752;4.268;2023-04-03T05:44:42;22.30;;;13.90;;
25481;SDS011;13395;50.752;4.268;2023-04-03T05:47:08;21.42;;;13.13;;
25481;SDS011;13395;50.752;4.268;2023-04-03T05:49:34;24.52;;;13.88;;
25481;SDS011;13395;50.752;4.268;2023-04-03T05:52:00;29.55;;;14.18;;
25481;SDS011;13395;50.752;4.268;2023-04-03T05:54:27;26.02;;;13.60;;
25481;SDS011;13395;50.752;4.268;2023-04-03T05:56:54;24.92;;;13.77;;
25481;SDS011;13395;50.752;4.268;2023-04-03T05:59:20;29.63;;;15.23;;
25481;SDS011;13395;50.752;4.268;2023-04-03T06:01:47;22.60;;;14.25;;
25481;SDS011;13395;50.752;4.268;2023-04-03T06:04:13;30.42;;;14.63;;
25481;SDS011;13395;50.752;4.268;2023-04-03T06:06:57;26.05;;;14.40;;
25481;SDS011;13395;50.752;4.268;2023-04-03T06:09:24;27.88;;;15.65;;
25481;SDS011;13395;50.752;4.268;2023-04-03T06:11:51;33.30;;;18.20;;
25481;SDS011;13395;50.752;4.268;2023-04-03T06:14:17;33.83;;;17.42;;
25481;SDS011;13395;50.752;4.268;2023-04-03T06:16:43;26.05;;;15.60;;
25481;SDS011;13395;50.752;4.268;2023-04-03T06:19:10;19.55;;;13.90;;
25481;SDS011;13395;50.752;4.268;2023-04-03T06:21:36;14.63;;;11.27;;
25481;SDS011;13395;50.752;4.268;2023-04-03T06:24:03;15.43;;;11.73;;
25481;SDS011;13395;50.752;4.268;2023-04-03T06:26:30;13.57;;;10.85;;
25481;SDS011;13395;50.752;4.268;2023-04-03T06:28:56;13.73;;;9.95;;
25481;SDS011;13395;50.752;4.268;2023-04-03T06:31:22;12.88;;;9.05;;
25481;SDS011;13395;50.752;4.268;2023-04-03T06:33:48;10.60;;;9.13;;
25481;SDS011;13395;50.752;4.268;2023-04-03T06:36:14;10.75;;;8.05;;
25481;SDS011;13395;50.752;4.268;2023-04-03T06:38:44;10.57;;;8.02;;
25481;SDS011;13395;50.752;4.268;2023-04-03T06:41:10;18.08;;;8.77;;
25481;SDS011;13395;50.752;4.268;2023-04-03T06:43:36;11.32;;;7.78;;
25481;SDS011;13395;50.752;4.268;2023-04-03T06:46:02;8.75;;;7.35;;
25481;SDS011;13395;50.752;4.268;2023-04-03T06:48:28;11.98;;;8.65;;
25481;SDS011;13395;50.752;4.268;2023-04-03T06:50:54;9.82;;;8.23;;
25481;SDS011;13395;50.752;4.268;2023-04-03T06:53:20;9.15;;;7.60;;
25481;SDS011;13395;50.752;4.268;2023-04-03T06:55:46;9.55;;;6.45;;
25481;SDS011;13395;50.752;4.268;2023-04-03T06:58:12;6.68;;;6.00;;
25481;SDS011;13395;50.752;4.268;2023-04-03T07:00:40;10.95;;;6.45;;
25481;SDS011;13395;50.752;4.268;2023-04-03T07:03:06;9.18;;;6.43;;
25481;SDS011;13395;50.752;4.268;2023-04-03T07:05:31;9.20;;;7.13;;
25481;SDS011;13395;50.752;4.268;2023-04-03T07:07:57;8.73;;;6.75;;
25481;SDS011;13395;50.752;4.268;2023-04-03T07:10:23;9.00;;;6.03;;
25481;SDS011;13395;50.752;4.268;2023-04-03T07:12:48;6.28;;;5.68;;
25481;SDS011;13395;50.752;4.268;2023-04-03T07:15:14;8.57;;;6.82;;
25481;SDS011;13395;50.752;4.268;2023-04-03T07:17:40;9.02;;;6.80;;
25481;SDS011;13395;50.752;4.268;2023-04-03T07:20:05;12.23;;;7.00;;
25481;SDS011;13395;50.752;4.268;2023-04-03T07:22:32;9.20;;;7.50;;
25481;SDS011;13395;50.752;4.268;2023-04-03T07:24:58;13.63;;;7.97;;
25481;SDS011;13395;50.752;4.268;2023-04-03T07:27:24;9.35;;;7.55;;
25481;SDS011;13395;50.752;4.268;2023-04-03T07:29:50;10.45;;;7.75;;
25481;SDS011;13395;50.752;4.268;2023-04-03T07:32:16;11.00;;;8.57;;
25481;SDS011;13395;50.752;4.268;2023-04-03T07:34:42;16.75;;;8.52;;
25481;SDS011;13395;50.752;4.268;2023-04-03T07:37:08;13.25;;;9.10;;
25481;SDS011;13395;50.752;4.268;2023-04-03T07:39:34;14.63;;;10.10;;
25481;SDS011;13395;50.752;4.268;2023-04-03T07:42:00;11.88;;;8.52;;
25481;SDS011;13395;50.752;4.268;2023-04-03T07:44:26;10.07;;;7.70;;
25481;SDS011;13395;50.752;4.268;2023-04-03T07:46:52;9.30;;;7.25;;
25481;SDS011;13395;50.752;4.268;2023-04-03T07:49:20;8.52;;;6.93;;
25481;SDS011;13395;50.752;4.268;2023-04-03T07:51:47;7.75;;;6.43;;
25481;SDS011;13395;50.752;4.268;2023-04-03T07:54:14;6.68;;;5.45;;
25481;SDS011;13395;50.752;4.268;2023-04-03T07:56:40;7.05;;;5.22;;
25481;SDS011;13395;50.752;4.268;2023-04-03T07:59:07;8.45;;;5.75;;
25481;SDS011;13395;50.752;4.268;2023-04-03T08:01:34;6.68;;;5.90;;
25481;SDS011;13395;50.752;4.268;2023-04-03T08:03:59;7.30;;;6.00;;
25481;SDS011;13395;50.752;4.268;2023-04-03T08:06:25;8.55;;;5.60;;
25481;SDS011;13395;50.752;4.268;2023-04-03T08:08:51;6.75;;;5.90;;
25481;SDS011;13395;50.752;4.268;2023-04-03T08:11:17;6.78;;;5.88;;
25481;SDS011;13395;50.752;4.268;2023-04-03T08:13:44;9.13;;;5.50;;
25481;SDS011;13395;50.752;4.268;2023-04-03T08:16:15;10.30;;;6.00;;
25481;SDS011;13395;50.752;4.268;2023-04-03T08:18:43;8.77;;;5.95;;
25481;SDS011;13395;50.752;4.268;2023-04-03T08:21:10;5.75;;;4.70;;
25481;SDS011;13395;50.752;4.268;2023-04-03T08:23:37;4.30;;;3.90;;
25481;SDS011;13395;50.752;4.268;2023-04-03T08:26:07;4.95;;;4.00;;
25481;SDS011;13395;50.752;4.268;2023-04-03T08:28:34;6.53;;;3.90;;
25481;SDS011;13395;50.752;4.268;2023-04-03T08:31:04;6.90;;;3.88;;
25481;SDS011;13395;50.752;4.268;2023-04-03T08:33:36;6.07;;;3.70;;
25481;SDS011;13395;50.752;4.268;2023-04-03T08:36:06;6.15;;;4.18;;
25481;SDS011;13395;50.752;4.268;2023-04-03T08:38:33;4.65;;;3.53;;
25481;SDS011;13395;50.752;4.268;2023-04-03T08:41:47;4.60;;;3.42;;
25481;SDS011;13395;50.752;4.268;2023-04-03T08:44:03;4.97;;;3.75;;
25481;SDS011;13395;50.752;4.268;2023-04-03T08:46:51;5.38;;;4.70;;
25481;SDS011;13395;50.752;4.268;2023-04-03T08:49:31;6.30;;;4.60;;
25481;SDS011;13395;50.752;4.268;2023-04-03T08:52:02;5.32;;;3.80;;
25481;SDS011;13395;50.752;4.268;2023-04-03T08:54:33;6.78;;;4.43;;
25481;SDS011;13395;50.752;4.268;2023-04-03T08:57:01;5.20;;;3.55;;
25481;SDS011;13395;50.752;4.268;2023-04-03T08:59:32;4.88;;;3.22;;
25481;SDS011;13395;50.752;4.268;2023-04-03T09:02:01;7.07;;;3.95;;
25481;SDS011;13395;50.752;4.268;2023-04-03T09:04:31;5.88;;;2.97;;
25481;SDS011;13395;50.752;4.268;2023-04-03T09:07:02;4.95;;;2.97;;
25481;SDS011;13395;50.752;4.268;2023-04-03T09:09:40;3.33;;;2.83;;
25481;SDS011;13395;50.752;4.268;2023-04-03T09:20:10;4.18;;;2.60;;
25481;SDS011;13395;50.752;4.268;2023-04-03T09:22:51;4.82;;;2.15;;
25481;SDS011;13395;50.752;4.268;2023-04-03T09:25:23;4.35;;;2.50;;
25481;SDS011;13395;50.752;4.268;2023-04-03T09:27:52;4.23;;;2.60;;
25481;SDS011;13395;50.752;4.268;2023-04-03T09:30:19;5.07;;;2.30;;
25481;SDS011;13395;50.752;4.268;2023-04-03T09:32:49;3.95;;;2.40;;
25481;SDS011;13395;50.752;4.268;2023-04-03T09:35:19;4.00;;;2.22;;
25481;SDS011;13395;50.752;4.268;2023-04-03T09:37:45;4.78;;;2.70;;
25481;SDS011;13395;50.752;4.268;2023-04-03T09:40:31;3.92;;;2.25;;
25481;SDS011;13395;50.752;4.268;2023-04-03T09:43:01;2.58;;;2.28;;
25481;SDS011;13395;50.752;4.268;2023-04-03T09:45:44;8.73;;;2.47;;
25481;SDS011;13395;50.752;4.268;2023-04-03T09:50:58;3.38;;;1.92;;
25481;SDS011;13395;50.752;4.268;2023-04-03T09:58:42;4.18;;;2.25;;
25481;SDS011;13395;50.752;4.268;2023-04-03T10:01:33;6.60;;;2.47;;
25481;SDS011;13395;50.752;4.268;2023-04-03T10:06:47;4.78;;;1.80;;
25481;SDS011;13395;50.752;4.268;2023-04-03T10:14:22;3.55;;;2.15;;
25481;SDS011;13395;50.752;4.268;2023-04-03T10:16:51;2.97;;;1.60;;
25481;SDS011;13395;50.752;4.268;2023-04-03T10:21:58;5.05;;;1.80;;
25481;SDS011;13395;50.752;4.268;2023-04-03T10:27:00;3.92;;;1.67;;
25481;SDS011;13395;50.752;4.268;2023-04-03T10:32:53;3.15;;;1.90;;
25481;SDS011;13395;50.752;4.268;2023-04-03T10:49:44;2.85;;;1.55;;
25481;SDS011;13395;50.752;4.268;2023-04-03T10:57:50;3.53;;;1.40;;
25481;SDS011;13395;50.752;4.268;2023-04-03T11:00:18;1.95;;;1.10;;
25481;SDS011;13395;50.752;4.268;2023-04-03T11:02:57;4.28;;;1.30;;
25481;SDS011;13395;50.752;4.268;2023-04-03T11:05:29;2.72;;;1.30;;
25481;SDS011;13395;50.752;4.268;2023-04-03T11:07:56;3.42;;;1.20;;
25481;SDS011;13395;50.752;4.268;2023-04-03T11:10:31;2.22;;;1.40;;
25481;SDS011;13395;50.752;4.268;2023-04-03T11:13:17;2.72;;;1.40;;
25481;SDS011;13395;50.752;4.268;2023-04-03T11:15:53;3.03;;;1.45;;
25481;SDS011;13395;50.752;4.268;2023-04-03T11:21:07;5.00;;;1.70;;
25481;SDS011;13395;50.752;4.268;2023-04-03T11:23:42;3.33;;;1.70;;
25481;SDS011;13395;50.752;4.268;2023-04-03T11:26:18;3.60;;;1.65;;
25481;SDS011;13395;50.752;4.268;2023-04-03T11:28:52;2.70;;;1.40;;
25481;SDS011;13395;50.752;4.268;2023-04-03T11:37:17;4.25;;;1.60;;
25481;SDS011;13395;50.752;4.268;2023-04-03T11:42:55;4.72;;;2.17;;
25481;SDS011;13395;50.752;4.268;2023-04-03T11:45:34;3.15;;;1.33;;
25481;SDS011;13395;50.752;4.268;2023-04-03T11:48:49;4.38;;;2.03;;
25481;SDS011;13395;50.752;4.268;2023-04-03T11:50:56;2.10;;;1.40;;
25481;SDS011;13395;50.752;4.268;2023-04-03T11:53:33;3.53;;;1.40;;
25481;SDS011;13395;50.752;4.268;2023-04-03T11:56:04;4.80;;;1.70;;
25481;SDS011;13395;50.752;4.268;2023-04-03T12:01:43;2.35;;;1.20;;
25481;SDS011;13395;50.752;4.268;2023-04-03T12:04:14;2.27;;;1.20;;
25481;SDS011;13395;50.752;4.268;2023-04-03T12:06:49;4.45;;;1.17;;
25481;SDS011;13395;50.752;4.268;2023-04-03T12:15:11;1.42;;;0.75;;
25481;SDS011;13395;50.752;4.268;2023-04-03T12:17:48;5.18;;;1.83;;
25481;SDS011;13395;50.752;4.268;2023-04-03T12:23:23;3.03;;;1.30;;
25481;SDS011;13395;50.752;4.268;2023-04-03T12:26:00;2.60;;;1.10;;
25481;SDS011;13395;50.752;4.268;2023-04-03T12:28:47;2.40;;;1.17;;
25481;SDS011;13395;50.752;4.268;2023-04-03T12:31:15;3.30;;;1.33;;
25481;SDS011;13395;50.752;4.268;2023-04-03T12:36:39;2.65;;;1.20;;
25481;SDS011;13395;50.752;4.268;2023-04-03T12:45:31;3.45;;;1.23;;
25481;SDS011;13395;50.752;4.268;2023-04-03T12:47:40;2.15;;;1.15;;
25481;SDS011;13395;50.752;4.268;2023-04-03T12:53:02;3.47;;;1.33;;
25481;SDS011;13395;50.752;4.268;2023-04-03T12:55:29;2.38;;;1.27;;
25481;SDS011;13395;50.752;4.268;2023-04-03T12:57:55;2.42;;;1.23;;
25481;SDS011;13395;50.752;4.268;2023-04-03T13:00:33;3.50;;;1.60;;
25481;SDS011;13395;50.752;4.268;2023-04-03T13:03:01;3.70;;;1.30;;
25481;SDS011;13395;50.752;4.268;2023-04-03T13:05:30;2.70;;;1.48;;
25481;SDS011;13395;50.752;4.268;2023-04-03T13:08:00;2.28;;;1.00;;
25481;SDS011;13395;50.752;4.268;2023-04-03T13:10:30;4.30;;;1.52;;
25481;SDS011;13395;50.752;4.268;2023-04-03T13:12:58;2.78;;;1.20;;
25481;SDS011;13395;50.752;4.268;2023-04-03T13:15:45;2.63;;;1.20;;
25481;SDS011;13395;50.752;4.268;2023-04-03T13:18:30;2.85;;;1.30;;
25481;SDS011;13395;50.752;4.268;2023-04-03T13:21:10;2.80;;;1.45;;
25481;SDS011;13395;50.752;4.268;2023-04-03T13:23:43;3.80;;;1.42;;
25481;SDS011;13395;50.752;4.268;2023-04-03T13:26:12;5.00;;;1.50;;
25481;SDS011;13395;50.752;4.268;2023-04-03T13:28:41;3.33;;;1.30;;
25481;SDS011;13395;50.752;4.268;2023-04-03T13:36:43;5.60;;;2.00;;
25481;SDS011;13395;50.752;4.268;2023-04-03T13:41:45;3.90;;;1.20;;
25481;SDS011;13395;50.752;4.268;2023-04-03T13:46:51;1.90;;;0.77;;
25481;SDS011;13395;50.752;4.268;2023-04-03T13:52:17;1.90;;;0.90;;
25481;SDS011;13395;50.752;4.268;2023-04-03T13:54:47;2.40;;;1.45;;
25481;SDS011;13395;50.752;4.268;2023-04-03T13:57:19;1.98;;;0.93;;
25481;SDS011;13395;50.752;4.268;2023-04-03T13:59:45;2.83;;;0.90;;
25481;SDS011;13395;50.752;4.268;2023-04-03T14:02:22;3.15;;;1.00;;
25481;SDS011;13395;50.752;4.268;2023-04-03T14:04:56;3.05;;;1.00;;
25481;SDS011;13395;50.752;4.268;2023-04-03T14:07:26;2.65;;;1.40;;
25481;SDS011;13395;50.752;4.268;2023-04-03T14:09:53;2.47;;;1.00;;
25481;SDS011;13395;50.752;4.268;2023-04-03T14:12:27;2.03;;;0.90;;
25481;SDS011;13395;50.752;4.268;2023-04-03T14:14:59;4.05;;;1.05;;
25481;SDS011;13395;50.752;4.268;2023-04-03T14:17:26;3.40;;;1.08;;
25481;SDS011;13395;50.752;4.268;2023-04-03T14:19:52;3.92;;;1.23;;
25481;SDS011;13395;50.752;4.268;2023-04-03T14:22:30;5.60;;;1.10;;
25481;SDS011;13395;50.752;4.268;2023-04-03T14:24:57;3.20;;;1.30;;
25481;SDS011;13395;50.752;4.268;2023-04-03T14:27:28;2.72;;;1.27;;
25481;SDS011;13395;50.752;4.268;2023-04-03T14:29:58;4.15;;;1.50;;
25481;SDS011;13395;50.752;4.268;2023-04-03T14:32:24;2.72;;;1.08;;
25481;SDS011;13395;50.752;4.268;2023-04-03T14:34:51;3.72;;;1.50;;
25481;SDS011;13395;50.752;4.268;2023-04-03T14:37:22;3.85;;;1.30;;
25481;SDS011;13395;50.752;4.268;2023-04-03T14:39:49;2.78;;;1.42;;
25481;SDS011;13395;50.752;4.268;2023-04-03T14:42:18;2.80;;;1.20;;
25481;SDS011;13395;50.752;4.268;2023-04-03T14:44:50;3.35;;;1.67;;
25481;SDS011;13395;50.752;4.268;2023-04-03T14:47:19;6.18;;;1.33;;
25481;SDS011;13395;50.752;4.268;2023-04-03T14:49:49;2.15;;;1.20;;
25481;SDS011;13395;50.752;4.268;2023-04-03T14:52:20;3.05;;;1.38;;
25481;SDS011;13395;50.752;4.268;2023-04-03T14:54:49;2.55;;;1.20;;
25481;SDS011;13395;50.752;4.268;2023-04-03T14:57:15;2.10;;;1.10;;
25481;SDS011;13395;50.752;4.268;2023-04-03T14:59:42;3.25;;;1.23;;
25481;SDS011;13395;50.752;4.268;2023-04-03T15:04:50;3.28;;;1.23;;
25481;SDS011;13395;50.752;4.268;2023-04-03T15:07:15;3.33;;;1.13;;
25481;SDS011;13395;50.752;4.268;2023-04-03T15:09:41;3.20;;;1.10;;
25481;SDS011;13395;50.752;4.268;2023-04-03T15:12:07;2.70;;;1.15;;
25481;SDS011;13395;50.752;4.268;2023-04-03T15:14:33;2.88;;;1.15;;
25481;SDS011;13395;50.752;4.268;2023-04-03T15:16:59;2.92;;;1.23;;
25481;SDS011;13395;50.752;4.268;2023-04-03T15:19:25;2.22;;;0.80;;
25481;SDS011;13395;50.752;4.268;2023-04-03T15:21:50;2.88;;;0.90;;
25481;SDS011;13395;50.752;4.268;2023-04-03T15:24:16;2.92;;;1.65;;
25481;SDS011;13395;50.752;4.268;2023-04-03T15:26:43;2.10;;;1.20;;
25481;SDS011;13395;50.752;4.268;2023-04-03T15:29:09;2.63;;;1.20;;
25481;SDS011;13395;50.752;4.268;2023-04-03T15:31:35;6.68;;;1.20;;
25481;SDS011;13395;50.752;4.268;2023-04-03T15:34:01;3.25;;;1.17;;
25481;SDS011;13395;50.752;4.268;2023-04-03T15:36:29;2.97;;;1.33;;
25481;SDS011;13395;50.752;4.268;2023-04-03T15:38:54;2.55;;;1.13;;
25481;SDS011;13395;50.752;4.268;2023-04-03T15:41:20;4.93;;;1.30;;
25481;SDS011;13395;50.752;4.268;2023-04-03T15:43:46;4.22;;;1.08;;
25481;SDS011;13395;50.752;4.268;2023-04-03T15:46:11;3.58;;;1.30;;
25481;SDS011;13395;50.752;4.268;2023-04-03T15:48:38;2.95;;;1.38;;
25481;SDS011;13395;50.752;4.268;2023-04-03T15:51:04;2.42;;;1.42;;
25481;SDS011;13395;50.752;4.268;2023-04-03T15:53:31;2.72;;;1.10;;
25481;SDS011;13395;50.752;4.268;2023-04-03T15:55:56;3.38;;;1.85;;
25481;SDS011;13395;50.752;4.268;2023-04-03T15:58:22;2.00;;;1.08;;
25481;SDS011;13395;50.752;4.268;2023-04-03T16:00:47;1.90;;;0.90;;
25481;SDS011;13395;50.752;4.268;2023-04-03T16:03:17;1.98;;;1.33;;
25481;SDS011;13395;50.752;4.268;2023-04-03T16:05:45;4.72;;;1.80;;
25481;SDS011;13395;50.752;4.268;2023-04-03T16:08:11;3.38;;;1.60;;
25481;SDS011;13395;50.752;4.268;2023-04-03T16:10:37;3.92;;;1.52;;
25481;SDS011;13395;50.752;4.268;2023-04-03T16:13:04;3.47;;;1.55;;
25481;SDS011;13395;50.752;4.268;2023-04-03T16:15:30;3.83;;;1.58;;
25481;SDS011;13395;50.752;4.268;2023-04-03T16:20:27;2.10;;;1.10;;
25481;SDS011;13395;50.752;4.268;2023-04-03T16:22:53;3.70;;;1.33;;
25481;SDS011;13395;50.752;4.268;2023-04-03T16:25:20;2.60;;;1.30;;
25481;SDS011;13395;50.752;4.268;2023-04-03T16:27:47;3.50;;;1.83;;
25481;SDS011;13395;50.752;4.268;2023-04-03T16:30:13;3.53;;;1.52;;
25481;SDS011;13395;50.752;4.268;2023-04-03T16:32:39;3.35;;;1.60;;
25481;SDS011;13395;50.752;4.268;2023-04-03T16:35:05;5.55;;;1.77;;